createdAt,value
2022-10-08T00:00:38.731Z,44.57
2022-10-08T00:02:43.123Z,44.57
2022-10-08T00:04:47.482Z,44.53
2022-10-08T00:06:51.786Z,44.41
2022-10-08T00:08:56.147Z,44.6
2022-10-08T00:11:00.483Z,44.65
2022-10-08T00:13:04.792Z,44.73
2022-10-08T00:15:09.096Z,44.84
2022-10-08T00:17:13.417Z,44.73
2022-10-08T00:19:17.808Z,44.99
2022-10-08T00:21:22.105Z,44.9
2022-10-08T00:23:26.449Z,44.81
2022-10-08T00:25:30.773Z,44.81
2022-10-08T00:27:35.081Z,44.78
2022-10-08T00:29:39.413Z,44.72
2022-10-08T00:31:44.048Z,44.55
2022-10-08T00:33:48.451Z,44.52
2022-10-08T00:35:52.780Z,44.62
2022-10-08T00:37:57.132Z,44.53
2022-10-08T00:40:01.434Z,44.51
2022-10-08T00:42:05.796Z,44.68
2022-10-08T00:44:10.146Z,44.78
2022-10-08T00:46:14.710Z,44.55
2022-10-08T00:48:19.097Z,44.78
2022-10-08T00:50:23.521Z,44.61
2022-10-08T00:52:27.823Z,44.67
2022-10-08T00:54:32.149Z,44.62
2022-10-08T00:56:36.470Z,44.64
2022-10-08T00:58:40.812Z,44.64
2022-10-08T01:00:45.546Z,44.46
2022-10-08T01:02:51.050Z,44.24
2022-10-08T01:04:55.376Z,44.27
2022-10-08T01:06:59.696Z,44.3
2022-10-08T01:09:04.064Z,44.28
2022-10-08T01:11:08.417Z,44.25
2022-10-08T01:13:12.731Z,44.32
2022-10-08T01:15:17.097Z,44.27
2022-10-08T01:17:21.418Z,44.32
2022-10-08T01:19:25.722Z,44.35
2022-10-08T01:21:30.058Z,44.26
2022-10-08T01:23:34.392Z,44.33
2022-10-08T01:25:38.733Z,44.2
2022-10-08T01:27:43.081Z,44.23
2022-10-08T01:29:47.412Z,44.23
2022-10-08T01:31:52.200Z,44.21
2022-10-08T01:33:56.604Z,44.22
2022-10-08T01:36:00.914Z,44.33
2022-10-08T01:38:05.239Z,44.41
2022-10-08T01:40:09.585Z,44.31
2022-10-08T01:42:13.946Z,44.27
2022-10-08T01:44:18.302Z,44.27
2022-10-08T01:46:22.608Z,44.37
2022-10-08T01:48:27.195Z,44.37
2022-10-08T01:50:31.497Z,44.5
2022-10-08T01:52:35.865Z,44.48
2022-10-08T01:54:40.178Z,44.37
2022-10-08T01:56:44.485Z,44.42
2022-10-08T01:58:48.814Z,44.37
2022-10-08T02:00:53.340Z,44.26
2022-10-08T02:02:57.726Z,44.24
2022-10-08T02:05:02.061Z,44.3
2022-10-08T02:07:06.369Z,44.31
2022-10-08T02:09:10.724Z,44.44
2022-10-08T02:11:15.034Z,44.48
2022-10-08T02:13:19.392Z,44.5
2022-10-08T02:15:23.737Z,44.55
2022-10-08T02:17:28.059Z,44.58
2022-10-08T02:19:32.395Z,44.58
2022-10-08T02:21:36.710Z,44.54
2022-10-08T02:23:41.035Z,44.71
2022-10-08T02:25:45.406Z,44.58
2022-10-08T02:27:49.722Z,44.83
2022-10-08T02:29:54.055Z,44.71
2022-10-08T02:31:58.559Z,44.61
2022-10-08T02:34:02.951Z,44.57
2022-10-08T02:36:07.271Z,44.55
2022-10-08T02:38:11.543Z,44.48
2022-10-08T02:40:15.874Z,44.52
2022-10-08T02:42:20.214Z,44.6
2022-10-08T02:44:24.587Z,44.68
2022-10-08T02:46:28.934Z,44.52
2022-10-08T02:48:33.337Z,44.59
2022-10-08T02:50:37.644Z,44.51
2022-10-08T02:52:41.974Z,44.62
2022-10-08T02:54:46.311Z,44.62
2022-10-08T02:56:50.583Z,44.62
2022-10-08T02:58:54.876Z,44.79
2022-10-08T03:00:59.492Z,44.75
2022-10-08T03:03:03.882Z,44.94
2022-10-08T03:05:08.215Z,44.91
2022-10-08T03:07:12.529Z,45.02
2022-10-08T03:09:16.844Z,44.75
2022-10-08T03:11:21.201Z,44.83
2022-10-08T03:13:25.539Z,44.82
2022-10-08T03:15:29.865Z,44.86
2022-10-08T03:17:34.239Z,44.86
2022-10-08T03:19:38.544Z,45.06
2022-10-08T03:21:42.897Z,44.9
2022-10-08T03:23:47.222Z,44.9
2022-10-08T03:25:51.605Z,44.93
2022-10-08T03:27:55.911Z,44.91
2022-10-08T03:30:00.242Z,44.99
2022-10-08T03:32:04.563Z,44.95
2022-10-08T03:34:08.882Z,44.86
2022-10-08T03:36:13.202Z,44.99
2022-10-08T03:38:17.520Z,45
2022-10-08T03:40:21.856Z,45.05
2022-10-08T03:42:26.115Z,45.05
2022-10-08T03:44:30.459Z,45.05
2022-10-08T03:46:35.049Z,45.18
2022-10-08T03:48:39.415Z,45.11
2022-10-08T03:50:43.739Z,45.04
2022-10-08T03:52:49.348Z,45.11
2022-10-08T03:54:53.813Z,45.29
2022-10-08T03:56:58.143Z,45.14
2022-10-08T03:59:02.501Z,45.26
2022-10-08T04:01:07.055Z,45.22
2022-10-08T04:03:11.545Z,45.1
2022-10-08T04:05:15.852Z,45.11
2022-10-08T04:07:20.203Z,45.2
2022-10-08T04:09:24.528Z,45.2
2022-10-08T04:11:28.867Z,45.13
2022-10-08T04:13:33.169Z,45.04
2022-10-08T04:15:37.699Z,45.05
2022-10-08T04:17:42.112Z,45.05
2022-10-08T04:19:46.414Z,45.09
2022-10-08T04:21:50.732Z,45.14
2022-10-08T04:23:55.038Z,45
2022-10-08T04:25:59.363Z,45.07
2022-10-08T04:28:03.920Z,45.15
2022-10-08T04:30:08.276Z,45.19
2022-10-08T04:32:12.635Z,45.09
2022-10-08T04:34:16.939Z,45.14
2022-10-08T04:36:21.273Z,45.04
2022-10-08T04:38:25.631Z,45.08
2022-10-08T04:40:29.945Z,45.14
2022-10-08T04:42:34.280Z,45.13
2022-10-08T04:44:38.592Z,45.08
2022-10-08T04:46:43.145Z,45.06
2022-10-08T04:48:47.603Z,45.31
2022-10-08T04:50:51.936Z,45.23
2022-10-08T04:52:56.289Z,45.2
2022-10-08T04:55:00.609Z,45.33
2022-10-08T04:57:04.951Z,45.33
2022-10-08T04:59:09.258Z,45.14
2022-10-08T05:01:13.822Z,45.16
2022-10-08T05:03:18.203Z,45.16
2022-10-08T05:05:22.520Z,45.25
2022-10-08T05:07:26.891Z,45.32
2022-10-08T05:09:31.195Z,45.14
2022-10-08T05:11:35.557Z,45.47
2022-10-08T05:13:39.920Z,45.65
2022-10-08T05:15:44.580Z,45.34
2022-10-08T05:17:48.963Z,45.35
2022-10-08T05:19:53.315Z,45.52
2022-10-08T05:21:57.656Z,45.34
2022-10-08T05:24:02.022Z,45.37
2022-10-08T05:26:06.302Z,45.35
2022-10-08T05:28:10.872Z,45.36
2022-10-08T05:30:21.130Z,45.42
2022-10-08T05:32:26.224Z,45.3
2022-10-08T05:34:30.792Z,45.71
2022-10-08T05:36:35.113Z,45.64
2022-10-08T05:38:39.477Z,45.33
2022-10-08T05:40:43.828Z,45.22
2022-10-08T05:42:49.397Z,45.09
2022-10-08T05:44:53.863Z,45.18
2022-10-08T05:46:58.726Z,45.12
2022-10-08T05:49:03.118Z,45.26
2022-10-08T05:51:07.447Z,45.25
2022-10-08T05:53:11.820Z,45.23
2022-10-08T05:55:16.136Z,45.29
2022-10-08T05:57:20.443Z,45.22
2022-10-08T05:59:24.825Z,45.3
2022-10-08T06:01:29.389Z,45.3
2022-10-08T06:03:33.745Z,45.41
2022-10-08T06:05:38.081Z,45.47
2022-10-08T06:07:42.395Z,45.6
2022-10-08T06:09:46.733Z,45.72
2022-10-08T06:11:51.053Z,45.58
2022-10-08T06:13:55.425Z,45.54
2022-10-08T06:15:59.908Z,45.4
2022-10-08T06:18:04.336Z,45.38
2022-10-08T06:20:08.688Z,45.32
2022-10-08T06:22:12.999Z,45.33
2022-10-08T06:24:17.346Z,45.42
2022-10-08T06:26:21.669Z,45.44
2022-10-08T06:28:26.225Z,45.45
2022-10-08T06:30:30.598Z,45.52
2022-10-08T06:32:34.896Z,45.64
2022-10-08T06:34:39.235Z,45.8
2022-10-08T06:36:43.541Z,45.77
2022-10-08T06:38:47.885Z,45.87
2022-10-08T06:40:52.219Z,45.89
2022-10-08T06:42:56.529Z,46.11
2022-10-08T06:45:04.386Z,46.08
2022-10-08T06:47:08.883Z,46.15
2022-10-08T06:49:13.365Z,46.16
2022-10-08T06:51:17.685Z,46.09
2022-10-08T06:53:22.014Z,46.13
2022-10-08T06:55:26.339Z,46.3
2022-10-08T06:57:30.656Z,46.25
2022-10-08T06:59:35.020Z,46.33
2022-10-08T07:01:39.992Z,46.35
2022-10-08T07:03:44.437Z,46.15
2022-10-08T07:05:48.788Z,46.24
2022-10-08T07:07:53.136Z,46.36
2022-10-08T07:09:57.471Z,46.4
2022-10-08T07:12:01.793Z,46.52
2022-10-08T07:14:06.135Z,46.42
2022-10-08T07:16:10.636Z,46.31
2022-10-08T07:18:14.969Z,46.25
2022-10-08T07:20:19.313Z,46.32
2022-10-08T07:22:23.631Z,46.18
2022-10-08T07:24:27.955Z,46.08
2022-10-08T07:26:32.331Z,45.96
2022-10-08T07:28:37.017Z,46
2022-10-08T07:30:41.469Z,46.23
2022-10-08T07:32:46.904Z,46.21
2022-10-08T07:34:51.351Z,46.18
2022-10-08T07:36:55.719Z,46.42
2022-10-08T07:39:00.043Z,46.47
2022-10-08T07:41:04.385Z,46.74
2022-10-08T07:43:08.739Z,46.56
2022-10-08T07:45:13.159Z,46.52
2022-10-08T07:47:17.479Z,46.75
2022-10-08T07:49:21.814Z,46.53
2022-10-08T07:51:26.217Z,46.61
2022-10-08T07:53:30.518Z,46.8
2022-10-08T07:55:34.873Z,46.97
2022-10-08T07:57:39.178Z,47.07
2022-10-08T07:59:43.527Z,47.06
2022-10-08T08:01:48.174Z,47.01
2022-10-08T08:03:52.573Z,47.09
2022-10-08T08:05:56.916Z,47.33
2022-10-08T08:08:01.228Z,47.55
2022-10-08T08:10:05.658Z,47.28
2022-10-08T08:12:10.079Z,46.92
2022-10-08T08:14:14.402Z,46.83
2022-10-08T08:16:19.076Z,46.75
2022-10-08T08:18:23.447Z,46.79
2022-10-08T08:20:27.801Z,46.8
2022-10-08T08:22:32.193Z,46.96
2022-10-08T08:24:36.524Z,47.15
2022-10-08T08:26:40.981Z,46.99
2022-10-08T08:28:45.579Z,46.85
2022-10-08T08:30:50.024Z,46.8
2022-10-08T08:32:54.293Z,46.75
2022-10-08T08:35:20.123Z,46.78
2022-10-08T08:37:30.815Z,46.68
2022-10-08T08:39:35.644Z,46.6
2022-10-08T08:41:40.013Z,46.64
2022-10-08T08:43:44.350Z,46.67
2022-10-08T08:45:49.987Z,46.63
2022-10-08T08:47:54.365Z,46.65
2022-10-08T08:49:58.870Z,46.66
2022-10-08T08:52:03.199Z,46.58
2022-10-08T08:54:07.568Z,46.62
2022-10-08T08:56:11.935Z,46.63
2022-10-08T08:58:16.353Z,46.64
2022-10-08T09:00:20.701Z,46.6
2022-10-08T09:02:25.061Z,46.57
2022-10-08T09:04:29.416Z,46.52
2022-10-08T09:06:33.835Z,46.48
2022-10-08T09:08:38.293Z,46.46
2022-10-08T09:10:42.635Z,46.43
2022-10-08T09:12:48.169Z,46.46
2022-10-08T09:14:52.793Z,46.44
2022-10-08T09:16:57.367Z,46.39
2022-10-08T09:19:01.799Z,46.38
2022-10-08T09:21:06.175Z,46.33
2022-10-08T09:23:10.543Z,46.25
2022-10-08T09:25:14.883Z,46.23
2022-10-08T09:27:19.333Z,46.17
2022-10-08T09:29:23.714Z,46.16
2022-10-08T09:31:28.374Z,46.17
2022-10-08T09:33:32.811Z,46.1
2022-10-08T09:35:37.240Z,46.09
2022-10-08T09:37:41.573Z,46.06
2022-10-08T09:39:45.923Z,46.02
2022-10-08T09:41:50.258Z,45.94
2022-10-08T09:43:54.601Z,45.91
2022-10-08T09:45:59.250Z,45.9
2022-10-08T09:48:03.672Z,45.9
2022-10-08T09:50:08.043Z,45.89
2022-10-08T09:52:18.756Z,45.92
2022-10-08T09:54:23.373Z,45.87
2022-10-08T09:56:27.747Z,45.81
2022-10-08T09:58:32.095Z,45.83
2022-10-08T10:00:36.512Z,45.81
2022-10-08T10:02:40.851Z,45.74
2022-10-08T10:04:45.306Z,45.7
2022-10-08T10:06:49.631Z,45.65
2022-10-08T10:08:54.026Z,45.63
2022-10-08T10:10:58.406Z,45.61
2022-10-08T10:13:02.793Z,45.6
2022-10-08T10:15:07.177Z,45.52
2022-10-08T10:17:11.771Z,45.47
2022-10-08T10:19:16.132Z,45.41
2022-10-08T10:21:20.467Z,45.36
2022-10-08T10:23:24.837Z,45.42
2022-10-08T10:25:29.294Z,45.39
2022-10-08T10:27:33.678Z,45.47
2022-10-08T10:29:38.043Z,45.51
2022-10-08T10:31:42.436Z,45.56
2022-10-08T10:33:46.823Z,45.55
2022-10-08T10:35:51.211Z,45.58
2022-10-08T10:37:55.530Z,45.54
2022-10-08T10:39:59.877Z,45.51
2022-10-08T10:42:04.274Z,45.49
2022-10-08T10:44:08.648Z,45.46
2022-10-08T10:46:13.238Z,45.45
2022-10-08T10:48:17.599Z,45.43
2022-10-08T10:50:22.080Z,45.43
2022-10-08T10:52:26.526Z,45.42
2022-10-08T10:54:30.890Z,45.44
2022-10-08T10:56:35.238Z,45.49
2022-10-08T10:58:39.582Z,45.51
2022-10-08T11:00:43.976Z,45.55
2022-10-08T11:02:49.702Z,45.56
2022-10-08T11:05:00.803Z,45.56
2022-10-08T11:07:05.897Z,45.59
2022-10-08T11:09:10.222Z,45.6
2022-10-08T11:11:14.575Z,45.56
2022-10-08T11:13:18.950Z,45.53
2022-10-08T11:15:23.294Z,45.55
2022-10-08T11:17:27.618Z,45.52
2022-10-08T11:19:31.999Z,45.52
2022-10-08T11:21:36.331Z,45.51
2022-10-08T11:23:40.675Z,45.53
2022-10-08T11:26:23.875Z,45.51
2022-10-08T11:28:28.487Z,45.49
2022-10-08T11:30:32.900Z,45.46
2022-10-08T11:32:37.288Z,45.47
2022-10-08T11:34:41.596Z,45.48
2022-10-08T11:36:46.064Z,45.52
2022-10-08T11:38:50.424Z,45.51
2022-10-08T11:40:54.759Z,45.45
2022-10-08T11:42:59.129Z,45.44
2022-10-08T11:45:03.493Z,45.46
2022-10-08T11:47:07.855Z,45.49
2022-10-08T11:49:12.232Z,45.53
2022-10-08T11:51:16.590Z,45.56
2022-10-08T11:53:20.908Z,45.54
2022-10-08T11:55:25.300Z,45.56
2022-10-08T11:58:10.530Z,45.54
2022-10-08T12:00:14.990Z,45.59
2022-10-08T12:02:19.879Z,45.9
2022-10-08T12:04:24.249Z,45.84
2022-10-08T12:06:28.628Z,45.89
2022-10-08T12:08:33.135Z,45.96
2022-10-08T12:10:37.486Z,46.02
2022-10-08T12:12:41.853Z,46.05
2022-10-08T12:14:46.170Z,46.04
2022-10-08T12:16:50.915Z,46
2022-10-08T12:18:55.220Z,45.99
2022-10-08T12:20:59.531Z,46.03
2022-10-08T12:23:03.870Z,46.05
2022-10-08T12:25:08.223Z,46.02
2022-10-08T12:27:12.584Z,46.03
2022-10-08T12:29:16.947Z,46.03
2022-10-08T12:31:21.598Z,46.09
2022-10-08T12:33:26.013Z,46.07
2022-10-08T12:35:30.384Z,46.12
2022-10-08T12:37:34.721Z,46.09
2022-10-08T12:39:39.080Z,46.09
2022-10-08T12:41:43.409Z,46.14
2022-10-08T12:43:47.846Z,46.12
2022-10-08T12:45:52.186Z,46.13
2022-10-08T12:47:56.565Z,46.15
2022-10-08T12:50:00.897Z,46.07
2022-10-08T12:52:05.246Z,46.11
2022-10-08T12:54:09.684Z,46.11
2022-10-08T12:56:14.015Z,46.14
2022-10-08T12:58:18.366Z,46.11
2022-10-08T13:00:22.721Z,46.07
2022-10-08T13:02:27.116Z,46.11
2022-10-08T13:04:31.618Z,46.08
2022-10-08T13:06:36.220Z,46.08
2022-10-08T13:08:40.567Z,46.06
2022-10-08T13:10:44.945Z,46.07
2022-10-08T13:12:49.260Z,46.31
2022-10-08T13:14:53.595Z,46.37
2022-10-08T13:16:57.956Z,46.34
2022-10-08T13:19:02.374Z,46.3
2022-10-08T13:21:06.749Z,46.21
2022-10-08T13:23:12.427Z,46.13
2022-10-08T13:25:16.778Z,46.13
2022-10-08T13:27:21.150Z,46.06
2022-10-08T13:29:25.815Z,46.03
2022-10-08T13:31:30.421Z,46.01
2022-10-08T13:33:34.813Z,46.01
2022-10-08T13:35:39.197Z,46
2022-10-08T13:37:43.550Z,45.97
2022-10-08T13:39:47.996Z,45.94
2022-10-08T13:41:54.603Z,45.96
2022-10-08T13:43:58.960Z,45.91
2022-10-08T13:46:03.314Z,45.94
2022-10-08T13:48:07.647Z,45.89
2022-10-08T13:50:12.069Z,45.89
2022-10-08T13:52:16.397Z,45.84
2022-10-08T13:54:20.737Z,45.87
2022-10-08T13:56:25.079Z,45.85
2022-10-08T13:58:29.424Z,45.83
2022-10-08T14:00:34.163Z,45.87
2022-10-08T14:02:38.588Z,45.88
2022-10-08T14:04:43.005Z,45.88
2022-10-08T14:06:47.677Z,45.94
2022-10-08T14:08:52.010Z,46.01
2022-10-08T14:10:56.367Z,46.05
2022-10-08T14:13:00.693Z,46.13
2022-10-08T14:15:05.026Z,46.16
2022-10-08T14:17:09.394Z,46.13
2022-10-08T14:19:14.347Z,46.28
2022-10-08T14:21:18.729Z,46.58
2022-10-08T14:23:23.072Z,46.55
2022-10-08T14:25:27.517Z,46.37
2022-10-08T14:27:31.861Z,46.62
2022-10-08T14:29:36.183Z,46.91
2022-10-08T14:31:40.853Z,47.03
2022-10-08T14:33:45.259Z,47.2
2022-10-08T14:35:49.683Z,47.36
2022-10-08T14:37:54.034Z,47.47
2022-10-08T14:39:58.367Z,47.47
2022-10-08T14:42:02.713Z,47.57
2022-10-08T14:44:07.034Z,47.71
2022-10-08T14:46:11.642Z,47.75
2022-10-08T14:48:16.029Z,47.78
2022-10-08T14:50:20.359Z,47.77
2022-10-08T14:52:24.742Z,47.92
2022-10-08T14:54:29.066Z,47.87
2022-10-08T14:56:33.371Z,47.76
2022-10-08T14:58:37.742Z,47.83
2022-10-08T15:00:42.085Z,47.83
2022-10-08T15:02:47.460Z,47.82
2022-10-08T15:04:51.940Z,47.93
2022-10-08T15:06:56.295Z,47.89
2022-10-08T15:09:00.639Z,47.97
2022-10-08T15:11:04.980Z,47.95
2022-10-08T15:13:09.320Z,48.17
2022-10-08T15:15:13.693Z,48.27
2022-10-08T15:17:18.007Z,48.21
2022-10-08T15:19:25.722Z,48.2
2022-10-08T15:21:30.003Z,47.81
2022-10-08T15:23:34.375Z,46.75
2022-10-08T15:25:38.707Z,47.32
2022-10-08T15:27:43.036Z,47.08
2022-10-08T15:29:47.363Z,47.31
2022-10-08T15:31:52.136Z,47.33
2022-10-08T15:33:56.533Z,47.38
2022-10-08T15:36:00.876Z,47.26
2022-10-08T15:38:05.229Z,47.12
2022-10-08T15:40:09.582Z,47.29
2022-10-08T15:42:13.911Z,47.45
2022-10-08T15:44:18.284Z,47.02
2022-10-08T15:46:22.889Z,46.52
2022-10-08T15:48:27.271Z,46.61
2022-10-08T15:50:31.606Z,43.1
2022-10-08T15:52:35.959Z,42.05
2022-10-08T15:54:40.332Z,41.38
2022-10-08T15:56:44.677Z,41.55
2022-10-08T15:58:53.521Z,41.54
2022-10-08T16:00:58.032Z,41.51
2022-10-08T16:03:02.405Z,41.62
2022-10-08T16:05:06.771Z,41.73
2022-10-08T16:07:11.206Z,41.81
2022-10-08T16:09:15.572Z,41.91
2022-10-08T16:11:19.885Z,42.12
2022-10-08T16:13:24.203Z,42.17
2022-10-08T16:15:28.602Z,42.27
2022-10-08T16:17:32.971Z,42.35
2022-10-08T16:19:37.310Z,42.37
2022-10-08T16:21:41.649Z,42.5
2022-10-08T16:23:46.025Z,42.71
2022-10-08T16:25:50.364Z,42.98
2022-10-08T16:27:54.675Z,42.67
2022-10-08T16:29:59.110Z,42.69
2022-10-08T16:32:03.462Z,42.79
2022-10-08T16:34:07.807Z,42.61
2022-10-08T16:36:12.198Z,42.61
2022-10-08T16:38:18.263Z,42.54
2022-10-08T16:40:22.636Z,42.35
2022-10-08T16:42:26.961Z,42.14
2022-10-08T16:44:31.331Z,42.01
2022-10-08T16:46:35.723Z,41.79
2022-10-08T16:48:40.055Z,41.71
2022-10-08T16:50:44.415Z,41.7
2022-10-08T16:52:49.821Z,41.67
2022-10-08T16:54:56.651Z,41.68
2022-10-08T16:57:01.052Z,41.4
2022-10-08T16:59:05.410Z,41.53
2022-10-08T17:01:10.103Z,41.65
2022-10-08T17:03:14.491Z,41.44
2022-10-08T17:05:18.849Z,41.18
2022-10-08T17:07:23.181Z,41.33
2022-10-08T17:09:27.554Z,41.22
2022-10-08T17:11:31.992Z,41.09
2022-10-08T17:13:36.450Z,41.35
2022-10-08T17:15:40.855Z,41.33
2022-10-08T17:17:45.230Z,41.22
2022-10-08T17:19:49.612Z,41.12
2022-10-08T17:21:53.948Z,41.41
2022-10-08T17:23:58.330Z,41.17
2022-10-08T17:26:02.735Z,41.52
2022-10-08T17:28:07.208Z,41.68
2022-10-08T17:30:11.572Z,41.35
2022-10-08T17:32:15.959Z,41.52
2022-10-08T17:34:20.437Z,41.31
2022-10-08T17:36:24.796Z,41.25
2022-10-08T17:38:29.143Z,41.25
2022-10-08T17:40:33.504Z,41.24
2022-10-08T17:42:37.955Z,41.09
2022-10-08T17:44:42.373Z,41.01
2022-10-08T17:46:47.044Z,40.98
2022-10-08T17:48:51.417Z,40.81
2022-10-08T17:50:55.756Z,40.72
2022-10-08T17:53:00.134Z,40.6
2022-10-08T17:55:04.522Z,40.66
2022-10-08T17:57:08.894Z,40.67
2022-10-08T17:59:13.263Z,40.79
2022-10-08T18:01:17.947Z,40.86
2022-10-08T18:03:22.308Z,40.93
2022-10-08T18:05:26.664Z,40.98
2022-10-08T18:07:31.006Z,41.08
2022-10-08T18:09:35.366Z,41.61
2022-10-08T18:11:39.775Z,41.85
2022-10-08T18:13:44.173Z,42.3
2022-10-08T18:15:48.804Z,45.51
2022-10-08T18:17:53.176Z,46.83
2022-10-08T18:19:57.591Z,47.74
2022-10-08T18:22:01.987Z,48.33
2022-10-08T18:24:06.363Z,48.32
2022-10-08T18:26:10.699Z,48.46
2022-10-08T18:28:15.288Z,48.82
2022-10-08T18:30:19.687Z,48.63
2022-10-08T18:32:24.069Z,49.2
2022-10-08T18:34:28.372Z,48.97
2022-10-08T18:36:32.699Z,49.29
2022-10-08T18:38:37.094Z,48.82
2022-10-08T18:40:41.447Z,47.69
2022-10-08T18:42:46.446Z,46.24
2022-10-08T18:44:50.982Z,45.75
2022-10-08T18:46:55.343Z,45.73
2022-10-08T18:48:59.714Z,45.39
2022-10-08T18:51:04.098Z,47.02
2022-10-08T18:53:08.493Z,47.14
2022-10-08T18:55:12.843Z,46.03
2022-10-08T18:57:17.188Z,46.18
2022-10-08T18:59:21.584Z,45.29
2022-10-08T19:01:26.562Z,45.44
2022-10-08T19:03:31.065Z,44.43
2022-10-08T19:05:35.396Z,44.05
2022-10-08T19:07:39.831Z,43.53
2022-10-08T19:09:44.184Z,43.11
2022-10-08T19:11:48.572Z,42.78
2022-10-08T19:13:53.127Z,42.43
2022-10-08T19:15:57.713Z,42.47
2022-10-08T19:18:02.125Z,42.15
2022-10-08T19:20:06.489Z,41.98
2022-10-08T19:22:10.842Z,42.21
2022-10-08T19:24:15.214Z,42.64
2022-10-08T19:26:19.592Z,43.09
2022-10-08T19:28:24.108Z,43.75
2022-10-08T19:30:34.206Z,43.67
2022-10-08T19:32:38.624Z,44.08
2022-10-08T19:34:43.043Z,42.81
2022-10-08T19:36:47.517Z,43.86
2022-10-08T19:38:51.913Z,42.95
2022-10-08T19:40:56.297Z,43.81
2022-10-08T19:43:00.709Z,43.49
2022-10-08T19:45:05.054Z,44.18
2022-10-08T19:47:09.391Z,43.91
2022-10-08T19:49:13.792Z,44.05
2022-10-08T19:51:18.165Z,44.01
2022-10-08T19:53:22.521Z,44.14
2022-10-08T19:55:26.891Z,44.17
2022-10-08T19:57:31.245Z,44.31
2022-10-08T19:59:35.683Z,44.16
2022-10-08T20:01:40.351Z,44.15
2022-10-08T20:03:44.754Z,43.98
2022-10-08T20:05:49.121Z,43.83
2022-10-08T20:07:53.469Z,43.52
2022-10-08T20:09:57.852Z,43.44
2022-10-08T20:12:03.211Z,43.39
2022-10-08T20:14:07.709Z,43.33
2022-10-08T20:16:12.283Z,43.23
2022-10-08T20:18:16.749Z,43.17
2022-10-08T20:20:34.893Z,42.89
2022-10-08T20:22:39.226Z,42.92
2022-10-08T20:24:43.617Z,43.25
2022-10-08T20:26:47.959Z,43.51
2022-10-08T20:28:52.310Z,43.5
2022-10-08T20:30:56.783Z,43.29
2022-10-08T20:33:01.131Z,43.17
2022-10-08T20:35:05.489Z,43.18
2022-10-08T20:37:09.839Z,43.28
2022-10-08T20:39:14.177Z,43.19
2022-10-08T20:41:18.531Z,43.37
2022-10-08T20:43:22.854Z,43.46
2022-10-08T20:45:27.310Z,43.57
2022-10-08T20:47:31.654Z,43.67
2022-10-08T20:49:36.019Z,43.82
2022-10-08T20:51:40.391Z,44.33
2022-10-08T20:53:44.742Z,43.99
2022-10-08T20:55:49.119Z,43.94
2022-10-08T20:57:53.447Z,43.69
2022-10-08T20:59:57.833Z,43.53
2022-10-08T21:02:02.396Z,43.33
2022-10-08T21:04:06.783Z,43.14
2022-10-08T21:06:11.208Z,43.03
2022-10-08T21:08:15.570Z,43.07
2022-10-08T21:10:26.390Z,42.92
2022-10-08T21:12:30.731Z,43.03
2022-10-08T21:14:35.069Z,42.87
2022-10-08T21:16:39.762Z,42.85
2022-10-08T21:18:44.184Z,42.75
2022-10-08T21:20:48.597Z,42.77
2022-10-08T21:22:53.302Z,42.61
2022-10-08T21:24:57.639Z,42.57
2022-10-08T21:27:01.987Z,42.6
2022-10-08T21:29:06.333Z,42.57
2022-10-08T21:31:10.881Z,42.59
2022-10-08T21:33:15.225Z,42.53
2022-10-08T21:35:19.559Z,42.67
2022-10-08T21:37:23.933Z,42.66
2022-10-08T21:39:28.295Z,43.06
2022-10-08T21:41:32.638Z,43.32
2022-10-08T21:43:36.956Z,43.32
2022-10-08T21:45:41.621Z,43.47
2022-10-08T21:47:46.081Z,42.82
2022-10-08T21:49:50.448Z,42.74
2022-10-08T21:51:54.785Z,42.55
2022-10-08T21:53:59.187Z,42.49
2022-10-08T21:56:03.555Z,42.45
2022-10-08T21:58:07.928Z,42.27
2022-10-08T22:00:12.253Z,42.31
2022-10-08T22:02:16.886Z,42.22
2022-10-08T22:04:21.206Z,42.26
2022-10-08T22:06:25.548Z,42.23
2022-10-08T22:08:29.943Z,42.04
2022-10-08T22:10:34.336Z,42.02
2022-10-08T22:12:38.693Z,42.01
2022-10-08T22:14:43.043Z,41.91
2022-10-08T22:16:47.648Z,41.86
2022-10-08T22:18:52.060Z,41.8
2022-10-08T22:20:56.399Z,41.77
2022-10-08T22:23:00.780Z,41.69
2022-10-08T22:25:05.271Z,41.6
2022-10-08T22:27:09.621Z,41.63
2022-10-08T22:29:14.014Z,41.61
2022-10-08T22:31:18.719Z,41.56
2022-10-08T22:33:23.125Z,41.4
2022-10-08T22:35:27.467Z,41.4
2022-10-08T22:37:31.791Z,41.4
2022-10-08T22:39:36.148Z,41.48
2022-10-08T22:41:40.498Z,41.53
2022-10-08T22:43:44.888Z,41.51
2022-10-08T22:45:49.585Z,41.52
2022-10-08T22:47:54.018Z,41.63
2022-10-08T22:49:58.357Z,41.49
2022-10-08T22:52:02.713Z,41.58
2022-10-08T22:54:07.077Z,41.46
2022-10-08T22:56:11.463Z,41.5
2022-10-08T22:58:15.796Z,41.3
2022-10-08T23:00:20.164Z,41.27
2022-10-08T23:02:24.753Z,41.26
2022-10-08T23:04:29.148Z,41.1
2022-10-08T23:06:33.490Z,40.9
2022-10-08T23:08:37.989Z,40.91
2022-10-08T23:10:42.327Z,40.84
2022-10-08T23:12:47.487Z,40.68
2022-10-08T23:14:52.004Z,40.75
2022-10-08T23:16:56.611Z,40.88
2022-10-08T23:19:00.982Z,40.64
2022-10-08T23:21:05.331Z,40.43
2022-10-08T23:23:09.649Z,40.51
2022-10-08T23:25:14.007Z,40.44
2022-10-08T23:27:18.346Z,40.32
2022-10-08T23:29:22.696Z,40.3
2022-10-08T23:31:27.392Z,40.2
2022-10-08T23:33:31.760Z,40.06
2022-10-08T23:35:36.127Z,40.25
2022-10-08T23:37:40.463Z,40.06
2022-10-08T23:39:44.873Z,40.1
2022-10-08T23:41:49.208Z,40.14
2022-10-08T23:43:53.779Z,40.04
2022-10-08T23:45:58.436Z,40.12
2022-10-08T23:48:02.812Z,40.14
2022-10-08T23:50:07.254Z,40.11
2022-10-08T23:52:11.604Z,40.1
2022-10-08T23:54:15.960Z,40.12
2022-10-08T23:56:20.323Z,40.31
2022-10-08T23:58:24.640Z,40.07
